Time;durP1;ratioP1;P1;durP2;ratioP2;P2;SDS_P1;SDS_P2;PMS_P1;PMS_P2;Temp;Humidity;BMP_temperature;BMP_pressure;BME280_temperature;BME280_humidity;BME280_pressure;Samples;Min_cycle;Max_cycle;Signal;HPM_P1;HPM_P2
2023/10/01 00:00:11;;;;;;;5.35;3.40;;;19.80;69.10;;;;;;5135205;27;20173;-69
2023/10/01 00:02:37;;;;;;;4.90;3.40;;;19.80;69.10;;;;;;5134672;27;20182;-68
2023/10/01 00:05:05;;;;;;;5.18;3.55;;;19.80;69.10;;;;;;5134967;27;20169;-68
2023/10/01 00:07:30;;;;;;;4.45;3.40;;;19.80;69.10;;;;;;5135228;27;20536;-68
2023/10/01 00:09:56;;;;;;;4.32;3.47;;;19.80;69.10;;;;;;5134616;27;20176;-71
2023/10/01 00:12:23;;;;;;;4.07;3.42;;;19.80;69.20;;;;;;5134712;27;20634;-71
2023/10/01 00:14:52;;;;;;;6.05;3.47;;;19.80;69.10;;;;;;5134851;27;20542;-71
2023/10/01 00:17:18;;;;;;;3.90;3.40;;;19.80;69.10;;;;;;5133931;27;20226;-70
2023/10/01 00:19:45;;;;;;;5.80;3.90;;;19.80;69.20;;;;;;5135283;27;20172;-70
2023/10/01 00:22:10;;;;;;;7.07;3.60;;;19.80;69.20;;;;;;5134933;27;20184;-72
2023/10/01 00:24:36;;;;;;;4.93;3.60;;;19.80;69.20;;;;;;5133854;27;20169;-70
2023/10/01 00:27:01;;;;;;;4.43;3.55;;;19.80;69.20;;;;;;5134814;27;20180;-70
2023/10/01 00:29:27;;;;;;;5.00;3.35;;;19.80;69.20;;;;;;5134754;27;20169;-68
2023/10/01 00:31:55;;;;;;;4.95;4.03;;;19.80;69.20;;;;;;5134028;27;20214;-68
2023/10/01 00:34:20;;;;;;;7.03;3.90;;;19.80;69.30;;;;;;5134257;27;20226;-68
2023/10/01 00:36:46;;;;;;;5.30;3.55;;;19.70;69.20;;;;;;5134903;27;20180;-68
2023/10/01 00:39:12;;;;;;;4.22;3.63;;;19.80;69.20;;;;;;5133772;27;20515;-70
2023/10/01 00:41:37;;;;;;;4.60;3.60;;;19.70;69.10;;;;;;5133869;27;20626;-68
2023/10/01 00:44:03;;;;;;;5.13;3.97;;;19.80;69.20;;;;;;5133067;27;20164;-68
2023/10/01 00:46:29;;;;;;;4.53;3.50;;;19.80;69.30;;;;;;5134396;27;20242;-68
2023/10/01 00:48:55;;;;;;;5.43;3.90;;;19.70;69.20;;;;;;5134791;27;20176;-68
2023/10/01 00:51:20;;;;;;;3.88;3.35;;;19.70;69.10;;;;;;5089011;28;20201;-68
2023/10/01 00:53:46;;;;;;;4.05;3.65;;;19.70;69.30;;;;;;5113788;28;20169;-71
2023/10/01 00:56:12;;;;;;;4.60;4.00;;;19.80;69.30;;;;;;5113358;28;20263;-71
2023/10/01 00:58:38;;;;;;;3.80;3.38;;;19.70;69.30;;;;;;5112885;28;20169;-68
2023/10/01 01:01:07;;;;;;;6.18;4.70;;;19.70;69.30;;;;;;5113189;27;20222;-70
2023/10/01 01:03:34;;;;;;;5.90;3.90;;;19.70;69.30;;;;;;5124297;27;20533;-68
2023/10/01 01:08:46;;;;;;;4.85;3.97;;;19.70;69.30;;;;;;5134046;27;20164;-70
2023/10/01 01:11:15;;;;;;;3.65;3.33;;;19.70;69.30;;;;;;5133313;27;20547;-71
2023/10/01 01:13:41;;;;;;;5.28;3.78;;;19.70;69.40;;;;;;5133244;27;20188;-71
2023/10/01 01:16:07;;;;;;;4.60;3.72;;;19.70;69.30;;;;;;5133975;27;20180;-70
2023/10/01 01:18:36;;;;;;;3.92;3.63;;;19.70;69.30;;;;;;5115841;27;20646;-69
2023/10/01 01:21:09;;;;;;;5.45;3.92;;;19.70;69.30;;;;;;5132788;27;20217;-71
2023/10/01 01:23:35;;;;;;;3.58;3.25;;;19.70;69.30;;;;;;5133883;27;20247;-70
2023/10/01 01:26:01;;;;;;;4.30;3.63;;;19.70;69.30;;;;;;5133523;27;20311;-70
2023/10/01 01:28:35;;;;;;;4.40;3.95;;;19.70;69.30;;;;;;5133104;27;20165;-69
2023/10/01 01:31:02;;;;;;;5.25;4.18;;;19.70;69.40;;;;;;5133245;27;20218;-68
2023/10/01 01:33:31;;;;;;;5.60;3.75;;;19.70;69.30;;;;;;5132322;27;20172;-68
2023/10/01 01:36:03;;;;;;;4.60;4.20;;;19.70;69.40;;;;;;5113127;28;20631;-68
2023/10/01 01:38:31;;;;;;;4.30;3.50;;;19.70;69.30;;;;;;5113027;28;20263;-68
2023/10/01 01:40:56;;;;;;;5.43;3.95;;;19.70;69.30;;;;;;5094521;28;20174;-68
2023/10/01 01:43:22;;;;;;;4.85;4.35;;;19.60;69.20;;;;;;5112600;28;20183;-68
2023/10/01 01:45:55;;;;;;;4.80;3.90;;;19.70;69.30;;;;;;5113237;28;20165;-68
2023/10/01 01:48:21;;;;;;;4.70;3.88;;;19.70;69.40;;;;;;5111892;28;20559;-69
2023/10/01 01:50:50;;;;;;;4.45;3.80;;;19.70;69.40;;;;;;5112831;28;20295;-70
2023/10/01 01:53:18;;;;;;;4.97;4.03;;;19.70;69.30;;;;;;5114148;28;20712;-72
2023/10/01 01:55:43;;;;;;;4.03;3.63;;;19.70;69.40;;;;;;5118994;28;20674;-71
2023/10/01 01:58:10;;;;;;;3.95;3.58;;;19.70;69.30;;;;;;5120809;27;20175;-69
2023/10/01 02:00:37;;;;;;;4.57;4.05;;;19.60;69.30;;;;;;5119710;28;20253;-68
2023/10/01 02:03:14;;;;;;;5.07;3.80;;;19.60;69.30;;;;;;5119018;28;20635;-69
2023/10/01 02:05:47;;;;;;;4.20;3.67;;;19.60;69.30;;;;;;5119678;28;20177;-69
2023/10/01 02:08:24;;;;;;;4.50;4.03;;;19.70;69.40;;;;;;5123138;27;20176;-69
2023/10/01 02:10:55;;;;;;;4.55;3.90;;;19.70;69.30;;;;;;5140090;27;20714;-70
2023/10/01 02:13:24;;;;;;;4.18;3.35;;;19.60;69.20;;;;;;5139893;27;20267;-70
2023/10/01 02:15:51;;;;;;;4.82;3.92;;;19.60;69.20;;;;;;5139402;27;20642;-69
2023/10/01 02:18:16;;;;;;;3.75;3.45;;;19.60;69.20;;;;;;5139464;27;20603;-71
2023/10/01 02:20:44;;;;;;;5.40;4.50;;;19.70;69.40;;;;;;5140337;27;20701;-69
2023/10/01 02:23:13;;;;;;;3.88;3.55;;;19.60;69.30;;;;;;5138949;27;20640;-72
2023/10/01 02:25:46;;;;;;;4.82;3.55;;;19.60;69.30;;;;;;5140081;27;20187;-69
2023/10/01 02:28:15;;;;;;;5.13;3.67;;;19.60;69.30;;;;;;5138121;27;20207;-69
2023/10/01 02:30:47;;;;;;;4.32;3.38;;;19.60;69.30;;;;;;5139265;27;20221;-68
2023/10/01 02:33:17;;;;;;;4.07;3.72;;;19.60;69.30;;;;;;5140004;27;20244;-68
2023/10/01 02:35:46;;;;;;;4.20;3.70;;;19.60;69.30;;;;;;5140245;27;20168;-67
2023/10/01 02:40:59;;;;;;;3.72;3.33;;;19.60;69.30;;;;;;5140256;27;20257;-67
2023/10/01 02:43:25;;;;;;;3.25;2.95;;;19.60;69.30;;;;;;5139983;27;20255;-68
2023/10/01 02:45:51;;;;;;;4.68;3.65;;;19.60;69.30;;;;;;5139161;27;20582;-68
2023/10/01 02:48:16;;;;;;;4.15;3.30;;;19.60;69.30;;;;;;5138959;27;20216;-68
2023/10/01 02:50:51;;;;;;;3.92;3.53;;;19.60;69.40;;;;;;5119989;27;20173;-69
2023/10/01 02:53:21;;;;;;;4.07;3.67;;;19.60;69.40;;;;;;5118750;28;20283;-72
2023/10/01 02:55:47;;;;;;;4.03;3.63;;;19.60;69.40;;;;;;5119263;28;20169;-71
2023/10/01 02:58:32;;;;;;;4.90;3.78;;;19.60;69.40;;;;;;5123188;27;20229;-70
2023/10/01 03:01:01;;;;;;;4.85;3.53;;;19.60;69.40;;;;;;5139830;27;20176;-70
2023/10/01 03:03:32;;;;;;;4.00;3.60;;;19.60;69.40;;;;;;5106006;27;20259;-67
2023/10/01 03:05:58;;;;;;;4.70;3.47;;;19.60;69.40;;;;;;5135559;27;20228;-69
2023/10/01 03:11:11;;;;;;;4.40;3.83;;;19.60;69.40;;;;;;5136049;27;20689;-71
2023/10/01 03:13:38;;;;;;;4.22;3.80;;;19.60;69.40;;;;;;5135752;27;20172;-69
2023/10/01 03:18:54;;;;;;;4.07;3.67;;;19.50;69.30;;;;;;5130172;27;20176;-69
2023/10/01 03:22:05;;;;;;;4.95;3.30;;;19.50;69.30;;;;;;5129821;27;20196;-69
2023/10/01 03:24:09;;;;;;;3.80;3.25;;;19.60;69.40;;;;;;5135786;27;20225;-70
2023/10/01 03:26:35;;;;;;;3.80;3.15;;;19.50;69.30;;;;;;5135455;27;20180;-69
2023/10/01 03:29:21;;;;;;;4.18;3.50;;;19.60;69.40;;;;;;5135480;27;20545;-67
2023/10/01 03:31:47;;;;;;;3.97;3.63;;;19.60;69.40;;;;;;5136188;27;20212;-67
2023/10/01 03:34:30;;;;;;;4.43;3.42;;;19.60;69.40;;;;;;5135060;27;20248;-67
2023/10/01 03:37:00;;;;;;;3.72;3.33;;;19.50;69.30;;;;;;5136026;27;20185;-68
2023/10/01 03:39:28;;;;;;;3.70;3.40;;;19.50;69.30;;;;;;5121117;27;20176;-68
2023/10/01 03:42:03;;;;;;;3.55;3.13;;;19.50;69.40;;;;;;5114759;28;20180;-67
2023/10/01 03:47:14;;;;;;;3.78;3.47;;;19.50;69.40;;;;;;5114167;28;20231;-69
2023/10/01 03:49:45;;;;;;;3.75;3.45;;;19.50;69.40;;;;;;5114778;28;20189;-68
2023/10/01 03:52:14;;;;;;;4.90;3.80;;;19.50;69.40;;;;;;5126436;27;20260;-71
2023/10/01 03:54:53;;;;;;;4.10;3.42;;;19.50;69.30;;;;;;5134697;27;20180;-71
2023/10/01 03:57:19;;;;;;;3.70;3.40;;;19.50;69.30;;;;;;5135275;27;20183;-70
2023/10/01 03:59:54;;;;;;;4.40;3.70;;;19.50;69.40;;;;;;5135314;27;20522;-68
2023/10/01 04:05:22;;;;;;;4.25;3.72;;;19.50;69.30;;;;;;5135154;27;20175;-68
2023/10/01 04:07:49;;;;;;;3.05;2.75;;;19.50;69.40;;;;;;5135497;27;20225;-69
2023/10/01 04:10:19;;;;;;;4.00;3.63;;;19.50;69.40;;;;;;5134264;27;20188;-70
2023/10/01 04:12:44;;;;;;;4.20;3.38;;;19.50;69.30;;;;;;5135242;27;20212;-72
2023/10/01 04:15:22;;;;;;;3.50;3.20;;;19.50;69.40;;;;;;5134416;27;20165;-71
2023/10/01 04:18:09;;;;;;;5.47;3.53;;;19.50;69.40;;;;;;5134210;27;20184;-70
2023/10/01 04:20:33;;;;;;;4.03;3.50;;;19.50;69.40;;;;;;5134876;27;20188;-70
2023/10/01 04:23:04;;;;;;;3.38;3.08;;;19.50;69.40;;;;;;5116075;27;20176;-70
2023/10/01 04:25:36;;;;;;;3.67;3.30;;;19.50;69.40;;;;;;5114388;28;20173;-69
2023/10/01 04:28:05;;;;;;;3.72;3.30;;;19.50;69.40;;;;;;5115003;27;20180;-69
2023/10/01 04:30:37;;;;;;;3.45;3.15;;;19.50;69.40;;;;;;5134201;27;20218;-67
2023/10/01 04:33:16;;;;;;;3.58;3.22;;;19.50;69.40;;;;;;5134829;27;20556;-68
2023/10/01 04:35:55;;;;;;;5.28;3.13;;;19.50;69.40;;;;;;5134809;27;20188;-67
2023/10/01 04:38:22;;;;;;;3.47;2.88;;;19.50;69.50;;;;;;5133242;27;20690;-68
2023/10/01 04:40:50;;;;;;;3.75;3.10;;;19.50;69.40;;;;;;5134710;27;20199;-67
2023/10/01 04:43:19;;;;;;;4.03;3.25;;;19.50;69.40;;;;;;5133629;27;20180;-68
2023/10/01 04:45:47;;;;;;;4.50;3.50;;;19.50;69.40;;;;;;5134630;27;20535;-67
2023/10/01 04:48:20;;;;;;;3.10;2.90;;;19.50;69.40;;;;;;5133666;27;20231;-68
2023/10/01 04:50:46;;;;;;;3.80;3.45;;;19.50;69.40;;;;;;5113573;28;20188;-68
2023/10/01 04:53:15;;;;;;;3.53;3.22;;;19.50;69.50;;;;;;5113664;28;20213;-71
2023/10/01 04:55:41;;;;;;;3.67;3.08;;;19.50;69.40;;;;;;5113916;28;20165;-70
2023/10/01 04:58:12;;;;;;;4.85;3.38;;;19.50;69.50;;;;;;5112925;28;20181;-69
2023/10/01 05:00:42;;;;;;;3.28;2.97;;;19.50;69.40;;;;;;5131367;27;20226;-68
2023/10/01 05:03:08;;;;;;;3.17;2.80;;;19.50;69.50;;;;;;5134016;27;20172;-68
2023/10/01 05:05:37;;;;;;;3.17;2.88;;;19.50;69.40;;;;;;5133360;27;20530;-68
2023/10/01 05:08:04;;;;;;;3.25;2.95;;;19.50;69.50;;;;;;5133683;27;20202;-69
2023/10/01 05:10:29;;;;;;;4.07;3.08;;;19.50;69.50;;;;;;5134116;27;20589;-69
2023/10/01 05:12:58;;;;;;;4.20;3.38;;;19.50;69.50;;;;;;5133373;27;20208;-70
2023/10/01 05:15:35;;;;;;;3.40;3.10;;;19.50;69.50;;;;;;5133919;27;20175;-69
2023/10/01 05:18:01;;;;;;;4.00;3.10;;;19.50;69.50;;;;;;5120209;27;20179;-70
2023/10/01 05:20:27;;;;;;;3.78;3.47;;;19.50;69.50;;;;;;5112884;28;20176;-69
2023/10/01 05:22:54;;;;;;;3.80;3.40;;;19.50;69.50;;;;;;5113937;28;20173;-69
2023/10/01 05:25:20;;;;;;;3.60;3.15;;;19.50;69.60;;;;;;5112715;28;20177;-68
2023/10/01 05:27:46;;;;;;;3.88;3.00;;;19.50;69.60;;;;;;5123452;27;20188;-67
2023/10/01 05:30:58;;;;;;;3.40;3.10;;;19.40;69.40;;;;;;5133539;27;20171;-67
2023/10/01 05:33:11;;;;;;;4.75;3.10;;;19.50;69.50;;;;;;5124235;27;20599;-68
2023/10/01 05:35:41;;;;;;;4.70;3.60;;;19.50;69.50;;;;;;5133642;27;20957;-66
2023/10/01 05:38:10;;;;;;;4.10;3.13;;;19.50;69.50;;;;;;5133258;27;20615;-68
2023/10/01 05:40:37;;;;;;;2.60;2.40;;;19.50;69.50;;;;;;5133174;27;20322;-67
2023/10/01 05:43:13;;;;;;;4.53;3.25;;;19.40;69.50;;;;;;5133565;27;20197;-67
2023/10/01 05:45:52;;;;;;;3.88;3.17;;;19.50;69.50;;;;;;5133642;27;20256;-67
2023/10/01 05:48:23;;;;;;;3.83;3.00;;;19.50;69.60;;;;;;5131985;27;20220;-68
2023/10/01 05:50:49;;;;;;;3.00;2.70;;;19.50;69.50;;;;;;5113475;28;20188;-68
2023/10/01 05:53:14;;;;;;;3.50;2.92;;;19.50;69.60;;;;;;5112826;28;20212;-72
2023/10/01 05:55:41;;;;;;;4.30;3.40;;;19.40;69.50;;;;;;5112225;28;20172;-69
2023/10/01 05:58:19;;;;;;;3.33;3.03;;;19.40;69.50;;;;;;5112533;28;20220;-69
2023/10/01 06:00:56;;;;;;;4.55;3.05;;;19.50;69.60;;;;;;5112379;28;20275;-67
2023/10/01 06:03:23;;;;;;;4.35;3.28;;;19.40;69.60;;;;;;5112504;28;20173;-68
2023/10/01 06:05:58;;;;;;;3.75;3.28;;;19.50;69.60;;;;;;5113211;28;20172;-67
2023/10/01 06:08:32;;;;;;;3.50;3.00;;;19.40;69.50;;;;;;5111959;28;20191;-68
2023/10/01 06:11:09;;;;;;;4.13;3.33;;;19.40;69.60;;;;;;5113171;28;20160;-70
2023/10/01 06:13:37;;;;;;;4.75;3.33;;;19.40;69.50;;;;;;5112567;28;20185;-71
2023/10/01 06:16:14;;;;;;;3.63;3.33;;;19.40;69.50;;;;;;5112149;28;20564;-69
2023/10/01 06:18:50;;;;;;;3.72;2.90;;;19.40;69.50;;;;;;5116551;28;20206;-71
2023/10/01 06:21:18;;;;;;;3.95;3.33;;;19.50;69.70;;;;;;5112615;28;20183;-71
2023/10/01 06:23:49;;;;;;;4.82;3.63;;;19.40;69.50;;;;;;5112030;28;20184;-69
2023/10/01 06:26:22;;;;;;;3.75;3.03;;;19.40;69.60;;;;;;5112630;28;20161;-69
2023/10/01 06:28:48;;;;;;;3.65;3.33;;;19.40;69.60;;;;;;5115848;28;20181;-67
2023/10/01 06:31:17;;;;;;;4.00;3.17;;;19.40;69.60;;;;;;5112466;28;20252;-68
2023/10/01 06:33:46;;;;;;;4.20;3.35;;;19.40;69.60;;;;;;5112729;28;20211;-67
2023/10/01 06:36:21;;;;;;;4.63;3.15;;;19.40;69.80;;;;;;5111634;28;20180;-67
2023/10/01 06:38:47;;;;;;;3.88;3.10;;;19.40;69.50;;;;;;5130763;28;20172;-67
2023/10/01 06:41:18;;;;;;;3.60;3.20;;;19.40;69.50;;;;;;5135366;27;20252;-68
2023/10/01 06:43:54;;;;;;;4.43;3.38;;;19.40;69.60;;;;;;5136497;27;20196;-66
2023/10/01 06:46:23;;;;;;;3.95;3.15;;;19.40;69.60;;;;;;5136411;27;20773;-67
2023/10/01 06:48:50;;;;;;;4.20;3.10;;;19.40;69.60;;;;;;5136624;27;20188;-67
2023/10/01 06:51:24;;;;;;;3.85;3.20;;;19.40;69.60;;;;;;5135537;27;20192;-70
2023/10/01 06:53:58;;;;;;;4.03;3.20;;;19.40;69.50;;;;;;5136795;27;20649;-68
2023/10/01 06:56:24;;;;;;;3.65;3.15;;;19.40;70.40;;;;;;5136568;27;20638;-70
2023/10/01 07:01:34;;;;;;;4.10;3.08;;;19.40;69.50;;;;;;5115982;28;20180;-69
2023/10/01 07:04:05;;;;;;;4.57;3.40;;;19.40;69.50;;;;;;5134248;27;20176;-69
2023/10/01 07:06:34;;;;;;;5.30;3.30;;;19.40;69.50;;;;;;5136704;27;20180;-70
2023/10/01 07:08:59;;;;;;;4.28;3.03;;;19.40;70.40;;;;;;5136175;27;20247;-71
2023/10/01 07:11:28;;;;;;;4.07;3.45;;;19.40;69.50;;;;;;5135477;27;20279;-70
2023/10/01 07:13:55;;;;;;;5.10;3.25;;;19.40;69.50;;;;;;5136399;27;20190;-69
2023/10/01 07:16:35;;;;;;;3.53;2.72;;;19.40;69.50;;;;;;5136190;27;20568;-71
2023/10/01 07:19:04;;;;;;;4.38;3.20;;;19.40;69.50;;;;;;5135147;27;20188;-72
2023/10/01 07:21:30;;;;;;;4.35;3.33;;;19.50;69.40;;;;;;5136400;27;20168;-70
2023/10/01 07:23:58;;;;;;;3.95;3.55;;;19.50;69.30;;;;;;5136369;27;20203;-70
2023/10/01 07:26:23;;;;;;;3.83;2.92;;;19.50;69.40;;;;;;5135420;27;20176;-70
2023/10/01 07:28:59;;;;;;;3.25;2.88;;;19.50;69.30;;;;;;5136024;27;20550;-68
2023/10/01 07:31:25;;;;;;;4.43;3.00;;;19.60;69.30;;;;;;5135866;27;20250;-68
2023/10/01 07:33:54;;;;;;;3.33;2.95;;;19.60;69.20;;;;;;5135545;27;20204;-67
2023/10/01 07:36:20;;;;;;;3.45;3.15;;;19.60;69.10;;;;;;5135691;27;20169;-70
2023/10/01 07:38:49;;;;;;;3.75;3.17;;;19.70;69.00;;;;;;5135355;27;20548;-69
2023/10/01 07:41:20;;;;;;;4.90;3.60;;;19.70;69.00;;;;;;5134909;27;20165;-70
2023/10/01 07:43:45;;;;;;;3.97;3.00;;;19.70;68.90;;;;;;5135891;27;20187;-68
2023/10/01 07:46:15;;;;;;;5.32;3.45;;;19.70;68.80;;;;;;5134747;27;20177;-69
2023/10/01 07:48:46;;;;;;;4.13;3.20;;;19.70;68.70;;;;;;5135436;27;20179;-68
2023/10/01 07:51:28;;;;;;;5.68;3.30;;;19.80;68.80;;;;;;5135147;27;20176;-72
2023/10/01 07:53:56;;;;;;;5.15;3.30;;;19.80;68.70;;;;;;5135286;27;20176;-69
2023/10/01 07:56:22;;;;;;;4.25;3.33;;;19.90;68.60;;;;;;5135600;27;20263;-71
2023/10/01 07:58:56;;;;;;;5.28;3.50;;;19.90;68.60;;;;;;5123005;27;20260;-69
2023/10/01 08:01:38;;;;;;;4.18;3.78;;;19.90;68.70;;;;;;5134554;27;20224;-69
2023/10/01 08:06:49;;;;;;;4.70;3.28;;;19.90;68.80;;;;;;5135474;27;20710;-68
2023/10/01 08:09:15;;;;;;;5.72;3.25;;;19.90;68.80;;;;;;5133862;27;20686;-71
2023/10/01 08:11:58;;;;;;;6.05;4.07;;;20.00;69.80;;;;;;5135016;27;20296;-69
2023/10/01 08:14:26;;;;;;;5.72;3.40;;;20.00;68.90;;;;;;5134400;27;20653;-71
2023/10/01 08:16:53;;;;;;;4.88;3.83;;;20.00;68.90;;;;;;5135242;27;20601;-69
2023/10/01 08:19:22;;;;;;;5.70;3.33;;;20.00;68.90;;;;;;5134634;27;20189;-71
2023/10/01 08:21:50;;;;;;;5.78;4.07;;;20.00;69.00;;;;;;5134552;27;20202;-69
2023/10/01 08:24:19;;;;;;;6.03;3.47;;;20.00;69.00;;;;;;5134780;27;20176;-70
2023/10/01 08:27:12;;;;;;;4.75;3.20;;;20.10;69.10;;;;;;5135106;27;20176;-69
2023/10/01 08:32:22;;;;;;;4.60;3.30;;;20.10;69.10;;;;;;5134695;27;20203;-69
2023/10/01 08:35:01;;;;;;;5.15;3.50;;;20.10;69.10;;;;;;5134993;27;20172;-67
2023/10/01 08:37:31;;;;;;;5.18;3.50;;;20.10;69.10;;;;;;5133486;27;20193;-68
2023/10/01 08:39:57;;;;;;;5.05;3.92;;;20.20;69.20;;;;;;5134895;27;20175;-68
2023/10/01 08:42:28;;;;;;;5.43;3.50;;;20.10;69.10;;;;;;5133963;27;20188;-68
2023/10/01 08:45:03;;;;;;;4.00;3.20;;;20.10;69.10;;;;;;5134665;27;20164;-67
2023/10/01 08:47:36;;;;;;;4.00;3.40;;;20.20;69.20;;;;;;5134027;27;20336;-68
2023/10/01 08:50:27;;;;;;;4.35;3.47;;;20.20;69.20;;;;;;5133706;27;20180;-70
2023/10/01 08:53:09;;;;;;;6.13;3.75;;;20.20;69.20;;;;;;5134566;27;20204;-70
2023/10/01 08:55:35;;;;;;;4.80;3.42;;;20.20;69.20;;;;;;5134324;27;20660;-69
2023/10/01 08:58:13;;;;;;;4.70;3.45;;;20.30;69.20;;;;;;5133079;27;20172;-69
2023/10/01 09:00:48;;;;;;;4.03;3.30;;;20.30;69.10;;;;;;5134204;27;20172;-68
2023/10/01 09:03:26;;;;;;;5.85;3.67;;;20.30;69.10;;;;;;5114274;27;20208;-69
2023/10/01 09:06:04;;;;;;;4.97;3.33;;;20.30;69.10;;;;;;5097557;28;20204;-68
2023/10/01 09:08:42;;;;;;;6.22;4.22;;;20.30;69.10;;;;;;5125178;27;20583;-69
2023/10/01 09:11:14;;;;;;;6.18;3.92;;;20.30;69.10;;;;;;5133279;27;20211;-70
2023/10/01 09:14:14;;;;;;;6.32;4.18;;;20.30;69.10;;;;;;5134163;27;20168;-70
2023/10/01 09:16:42;;;;;;;4.30;3.67;;;20.40;69.10;;;;;;5133992;27;20213;-69
2023/10/01 09:21:54;;;;;;;4.53;3.65;;;20.40;69.10;;;;;;5134112;27;20213;-70
2023/10/01 09:24:39;;;;;;;4.70;3.78;;;20.40;69.10;;;;;;5133423;27;20539;-70
2023/10/01 09:27:24;;;;;;;4.93;3.85;;;20.40;69.10;;;;;;5133671;27;20180;-71
2023/10/01 09:30:23;;;;;;;7.13;4.05;;;20.50;69.10;;;;;;5133833;27;20619;-67
2023/10/01 09:32:54;;;;;;;5.65;3.90;;;20.50;69.10;;;;;;5119402;27;20306;-66
2023/10/01 09:35:38;;;;;;;4.75;4.00;;;20.50;69.00;;;;;;5100129;27;20171;-67
2023/10/01 09:38:10;;;;;;;5.35;3.45;;;20.50;69.00;;;;;;5133388;27;20312;-67
2023/10/01 09:40:46;;;;;;;5.50;3.40;;;20.40;69.00;;;;;;5133043;27;20176;-66
2023/10/01 09:43:18;;;;;;;6.28;3.85;;;20.50;69.00;;;;;;5133371;27;20168;-67
2023/10/01 09:45:47;;;;;;;4.63;3.40;;;20.50;69.00;;;;;;5132941;27;20183;-66
2023/10/01 09:48:29;;;;;;;6.50;4.15;;;20.60;69.20;;;;;;5132764;27;20585;-67
2023/10/01 09:50:57;;;;;;;6.60;4.22;;;20.60;69.30;;;;;;5133589;27;20181;-68
2023/10/01 09:53:25;;;;;;;8.85;4.75;;;20.60;69.20;;;;;;5132678;27;20235;-67
2023/10/01 09:55:55;;;;;;;8.85;4.60;;;20.60;69.30;;;;;;5115180;28;20181;-69
2023/10/01 09:58:24;;;;;;;12.43;5.07;;;20.70;69.40;;;;;;5109904;28;20455;-66
2023/10/01 10:01:08;;;;;;;12.90;5.22;;;20.80;69.40;;;;;;5132610;28;20301;-66
2023/10/01 10:03:36;;;;;;;9.85;4.70;;;20.90;69.60;;;;;;5119548;28;20192;-66
2023/10/01 10:06:06;;;;;;;12.50;4.57;;;21.00;69.70;;;;;;5094972;28;20180;-66
2023/10/01 10:08:35;;;;;;;15.48;4.63;;;21.00;69.70;;;;;;5094386;28;20188;-65
2023/10/01 10:11:06;;;;;;;8.77;4.97;;;21.10;69.80;;;;;;5112587;28;20177;-67
2023/10/01 10:13:48;;;;;;;9.93;5.03;;;21.10;69.70;;;;;;5095566;28;20258;-67
2023/10/01 10:16:30;;;;;;;12.23;4.72;;;21.20;70.00;;;;;;5116774;28;20638;-66
2023/10/01 10:19:05;;;;;;;8.82;5.38;;;21.20;70.20;;;;;;5116893;27;20601;-66
2023/10/01 10:24:48;;;;;;;10.85;4.85;;;21.30;70.20;;;;;;5116887;28;20184;-66
2023/10/01 10:27:33;;;;;;;8.35;4.57;;;21.30;70.20;;;;;;5116584;28;20647;-66
2023/10/01 10:30:01;;;;;;;10.05;5.28;;;21.30;71.20;;;;;;5119491;27;20193;-65
2023/10/01 10:32:27;;;;;;;10.40;4.93;;;21.40;70.40;;;;;;5120320;27;20261;-65
2023/10/01 10:35:03;;;;;;;8.65;4.30;;;21.40;70.40;;;;;;5120610;27;20177;-65
2023/10/01 10:37:35;;;;;;;10.68;5.55;;;21.40;70.30;;;;;;5116604;28;20181;-64
2023/10/01 10:40:13;;;;;;;8.38;4.80;;;21.40;70.30;;;;;;5116281;28;20177;-66
2023/10/01 10:42:57;;;;;;;12.98;5.97;;;21.50;70.20;;;;;;5115725;28;20173;-65
2023/10/01 10:45:24;;;;;;;11.95;5.10;;;21.50;70.10;;;;;;5113509;28;20250;-68
2023/10/01 10:48:03;;;;;;;14.00;4.97;;;21.50;70.00;;;;;;5116141;28;20277;-67
2023/10/01 10:50:53;;;;;;;10.77;5.32;;;21.50;70.00;;;;;;5115196;28;20211;-66
2023/10/01 10:53:42;;;;;;;9.25;5.20;;;21.50;69.80;;;;;;5133896;27;20211;-65
2023/10/01 10:56:13;;;;;;;13.07;5.10;;;21.50;69.70;;;;;;5135280;27;20188;-66
2023/10/01 10:58:46;;;;;;;9.75;5.35;;;21.50;70.00;;;;;;5136751;27;20173;-65
2023/10/01 11:01:16;;;;;;;9.20;5.43;;;21.40;69.80;;;;;;5136320;27;20176;-67
2023/10/01 11:03:43;;;;;;;10.85;6.00;;;21.40;69.90;;;;;;5115310;28;20266;-68
2023/10/01 11:06:15;;;;;;;8.35;5.32;;;21.40;69.90;;;;;;5115497;28;20188;-68
2023/10/01 11:08:50;;;;;;;9.68;5.57;;;21.40;69.80;;;;;;5115887;28;20196;-68
2023/10/01 11:11:41;;;;;;;6.63;5.25;;;21.40;69.70;;;;;;5114898;27;20229;-66
2023/10/01 11:14:16;;;;;;;9.15;5.20;;;21.40;69.60;;;;;;5115709;28;20177;-67
2023/10/01 11:16:44;;;;;;;10.40;5.57;;;21.40;69.50;;;;;;5099216;28;20180;-66
2023/10/01 11:19:13;;;;;;;9.40;5.78;;;21.40;69.40;;;;;;5114963;28;20185;-67
2023/10/01 11:21:55;;;;;;;9.70;5.90;;;21.40;69.20;;;;;;5115457;28;20248;-66
2023/10/01 11:24:39;;;;;;;11.27;6.03;;;21.50;70.00;;;;;;5114441;28;20999;-68
2023/10/01 11:27:20;;;;;;;13.10;6.00;;;21.50;69.10;;;;;;5096944;28;20181;-68
2023/10/01 11:29:58;;;;;;;10.98;5.75;;;21.60;68.90;;;;;;5115598;28;20252;-68
2023/10/01 11:32:58;;;;;;;10.98;5.50;;;21.60;68.90;;;;;;5114322;28;20663;-66
2023/10/01 11:35:34;;;;;;;10.45;5.60;;;21.60;68.80;;;;;;5115359;28;20185;-67
2023/10/01 11:38:13;;;;;;;8.73;5.80;;;21.70;68.80;;;;;;5115229;28;20180;-67
2023/10/01 11:43:27;;;;;;;10.05;5.53;;;21.70;68.70;;;;;;5115087;28;20625;-67
2023/10/01 11:46:23;;;;;;;7.07;5.47;;;21.70;68.60;;;;;;5114705;28;20165;-67
2023/10/01 11:48:56;;;;;;;11.35;5.43;;;21.80;68.70;;;;;;5115052;28;20650;-67
2023/10/01 11:52:01;;;;;;;9.38;6.00;;;21.70;68.70;;;;;;5114628;28;20183;-65
2023/10/01 11:54:45;;;;;;;8.68;5.78;;;21.80;68.80;;;;;;5113633;28;20229;-67
2023/10/01 11:57:22;;;;;;;10.80;6.07;;;21.80;68.80;;;;;;5114624;28;20170;-66
2023/10/01 11:59:54;;;;;;;10.52;5.47;;;21.80;69.10;;;;;;5114135;28;20214;-65
2023/10/01 12:02:43;;;;;;;9.00;5.82;;;21.80;69.20;;;;;;5114595;28;20178;-67
2023/10/01 12:05:13;;;;;;;12.73;6.03;;;21.90;70.20;;;;;;5111239;27;20537;-66
2023/10/01 12:07:43;;;;;;;10.13;5.32;;;21.80;70.60;;;;;;5134607;27;20220;-67
2023/10/01 12:10:31;;;;;;;13.50;5.95;;;21.90;70.60;;;;;;5135290;27;20188;-67
2023/10/01 12:12:55;;;;;;;8.85;6.10;;;21.90;70.60;;;;;;5134705;27;20215;-67
2023/10/01 12:15:51;;;;;;;13.68;6.35;;;21.90;71.30;;;;;;5134088;27;20172;-67
2023/10/01 12:18:17;;;;;;;11.98;6.80;;;22.00;71.60;;;;;;5134799;27;20176;-66
2023/10/01 12:20:55;;;;;;;11.55;6.15;;;22.00;71.20;;;;;;5134696;27;20175;-69
2023/10/01 12:23:22;;;;;;;10.55;5.80;;;22.00;71.80;;;;;;5134457;27;20302;-67
2023/10/01 12:28:18;;;;;;;9.18;5.65;;;22.00;71.80;;;;;;5133806;27;20632;-69
2023/10/01 12:30:57;;;;;;;11.52;6.05;;;22.00;71.70;;;;;;5134865;27;20179;-68
2023/10/01 12:33:23;;;;;;;11.38;6.05;;;21.90;71.90;;;;;;5134123;27;20597;-65
2023/10/01 12:35:48;;;;;;;15.77;6.25;;;21.90;72.50;;;;;;5134182;27;20169;-67
2023/10/01 12:40:49;;;;;;;14.55;6.10;;;22.00;72.80;;;;;;5134838;27;20172;-68
2023/10/01 12:45:59;;;;;;;9.88;6.13;;;22.10;72.20;;;;;;5134200;27;20183;-64
2023/10/01 12:48:24;;;;;;;14.63;7.20;;;22.10;72.10;;;;;;5134321;27;20180;-64
2023/10/01 12:51:08;;;;;;;10.80;5.88;;;22.20;72.00;;;;;;5133848;27;20180;-67
2023/10/01 12:53:34;;;;;;;17.30;6.28;;;22.20;71.80;;;;;;5133992;27;20194;-67
2023/10/01 12:56:03;;;;;;;14.38;6.00;;;22.20;71.50;;;;;;5133735;27;20172;-67
2023/10/01 12:58:39;;;;;;;11.30;6.22;;;22.20;71.20;;;;;;5134365;27;20208;-66
2023/10/01 13:01:27;;;;;;;9.43;5.63;;;22.20;71.10;;;;;;5133666;27;20295;-67
2023/10/01 13:03:53;;;;;;;9.77;5.43;;;22.20;70.90;;;;;;5113851;27;20260;-67
2023/10/01 13:06:18;;;;;;;12.73;6.50;;;22.30;70.60;;;;;;5113342;28;20193;-67
2023/10/01 13:08:45;;;;;;;10.38;5.85;;;22.30;70.30;;;;;;5113764;28;20198;-64
2023/10/01 13:11:46;;;;;;;11.60;5.55;;;22.30;70.10;;;;;;5112104;28;20699;-62
2023/10/01 13:14:16;;;;;;;9.20;5.47;;;22.30;70.10;;;;;;5113309;28;20193;-64
2023/10/01 13:16:49;;;;;;;9.40;5.90;;;22.30;70.20;;;;;;5112984;28;20180;-63
2023/10/01 13:19:17;;;;;;;10.63;5.30;;;22.30;70.40;;;;;;5113204;28;20627;-63
2023/10/01 13:21:43;;;;;;;11.15;5.35;;;22.20;70.50;;;;;;5113540;28;20169;-63
2023/10/01 13:24:11;;;;;;;9.52;5.30;;;22.20;70.60;;;;;;5112459;28;20217;-63
2023/10/01 13:26:38;;;;;;;8.65;5.30;;;22.20;70.60;;;;;;5113263;28;20172;-63
2023/10/01 13:29:22;;;;;;;10.68;5.32;;;22.20;70.60;;;;;;5112881;28;20619;-68
2023/10/01 13:31:51;;;;;;;9.45;5.55;;;22.30;70.50;;;;;;5112214;27;20693;-66
2023/10/01 13:39:48;;;;;;;10.27;5.97;;;22.40;70.10;;;;;;5123163;27;20740;-62
2023/10/01 14:09:54;;;;;;;10.38;5.00;;;22.30;70.70;;;;;;5050166;28;20177;-65
2023/10/01 14:15:29;;;;;;;11.63;5.47;;;22.30;70.80;;;;;;5132704;28;20532;-64
2023/10/01 14:17:54;;;;;;;8.43;4.60;;;22.30;70.80;;;;;;5132990;28;20263;-64
2023/10/01 14:20:37;;;;;;;10.10;5.60;;;22.40;70.80;;;;;;5132299;28;20236;-63
2023/10/01 14:23:07;;;;;;;9.98;4.78;;;22.40;70.70;;;;;;5133008;28;20181;-63
2023/10/01 14:25:58;;;;;;;10.45;5.38;;;22.50;70.50;;;;;;5127470;28;20172;-65